sensor_id;sensor_type;location;lat;lon;timestamp;pressure;altitude;pressure_sealevel;temperature;humidity
39275;BME280;24980;48.874;2.332;2023-08-07T00:02:02;101533.09;;;24.49;49.34
39275;BME280;24980;48.874;2.332;2023-08-07T00:04:32;101534.96;;;24.47;49.33
39275;BME280;24980;48.874;2.332;2023-08-07T00:07:08;101535.84;;;24.46;49.33
39275;BME280;24980;48.874;2.332;2023-08-07T00:09:33;101538.05;;;24.46;49.32
39275;BME280;24980;48.874;2.332;2023-08-07T00:12:03;101534.58;;;24.45;49.31
39275;BME280;24980;48.874;2.332;2023-08-07T00:14:36;101536.95;;;24.44;49.31
39275;BME280;24980;48.874;2.332;2023-08-07T00:17:04;101537.45;;;24.44;49.28
39275;BME280;24980;48.874;2.332;2023-08-07T00:19:34;101531.73;;;24.43;49.28
39275;BME280;24980;48.874;2.332;2023-08-07T00:22:04;101537.92;;;24.42;49.28
39275;BME280;24980;48.874;2.332;2023-08-07T00:24:34;101538.17;;;24.40;49.27
39275;BME280;24980;48.874;2.332;2023-08-07T00:27:07;101546.27;;;24.39;49.27
39275;BME280;24980;48.874;2.332;2023-08-07T00:29:36;101543.30;;;24.38;49.27
39275;BME280;24980;48.874;2.332;2023-08-07T00:32:06;101544.83;;;24.37;49.25
39275;BME280;24980;48.874;2.332;2023-08-07T00:34:37;101546.55;;;24.36;49.25
39275;BME280;24980;48.874;2.332;2023-08-07T00:37:07;101544.52;;;24.36;49.24
39275;BME280;24980;48.874;2.332;2023-08-07T00:39:38;101539.11;;;24.34;49.24
39275;BME280;24980;48.874;2.332;2023-08-07T00:42:08;101544.10;;;24.34;49.23
39275;BME280;24980;48.874;2.332;2023-08-07T00:44:44;101535.33;;;24.33;49.23
39275;BME280;24980;48.874;2.332;2023-08-07T00:47:15;101537.45;;;24.33;49.21
39275;BME280;24980;48.874;2.332;2023-08-07T00:49:40;101537.95;;;24.32;49.21
39275;BME280;24980;48.874;2.332;2023-08-07T00:52:17;101535.59;;;24.31;49.21
39275;BME280;24980;48.874;2.332;2023-08-07T00:54:49;101535.28;;;24.30;49.21
39275;BME280;24980;48.874;2.332;2023-08-07T00:57:20;101535.03;;;24.30;49.22
39275;BME280;24980;48.874;2.332;2023-08-07T00:59:50;101532.83;;;24.29;49.23
39275;BME280;24980;48.874;2.332;2023-08-07T01:02:17;101528.42;;;24.29;49.25
39275;BME280;24980;48.874;2.332;2023-08-07T01:07:18;101530.28;;;24.28;49.24
39275;BME280;24980;48.874;2.332;2023-08-07T01:09:44;101523.80;;;24.27;49.24
39275;BME280;24980;48.874;2.332;2023-08-07T01:12:28;101525.58;;;24.26;49.24
39275;BME280;24980;48.874;2.332;2023-08-07T01:15:12;101526.94;;;24.26;49.22
39275;BME280;24980;48.874;2.332;2023-08-07T01:17:16;101529.65;;;24.25;49.22
39275;BME280;24980;48.874;2.332;2023-08-07T01:19:47;101526.38;;;24.24;49.21
39275;BME280;24980;48.874;2.332;2023-08-07T01:22:17;101534.09;;;24.23;49.20
39275;BME280;24980;48.874;2.332;2023-08-07T01:24:50;101531.12;;;24.22;49.20
39275;BME280;24980;48.874;2.332;2023-08-07T01:30:17;101528.25;;;24.21;49.20
39275;BME280;24980;48.874;2.332;2023-08-07T01:32:24;101526.16;;;24.21;49.19
39275;BME280;24980;48.874;2.332;2023-08-07T01:34:55;101528.20;;;24.20;49.19
39275;BME280;24980;48.874;2.332;2023-08-07T01:37:21;101521.25;;;24.19;49.20
39275;BME280;24980;48.874;2.332;2023-08-07T01:39:51;101521.77;;;24.18;49.19
39275;BME280;24980;48.874;2.332;2023-08-07T01:42:24;101523.07;;;24.17;49.19
39275;BME280;24980;48.874;2.332;2023-08-07T01:44:52;101525.53;;;24.16;49.19
39275;BME280;24980;48.874;2.332;2023-08-07T01:47:22;101526.46;;;24.15;49.17
39275;BME280;24980;48.874;2.332;2023-08-07T01:49:52;101527.34;;;24.13;49.17
39275;BME280;24980;48.874;2.332;2023-08-07T01:52:23;101531.41;;;24.14;49.17
39275;BME280;24980;48.874;2.332;2023-08-07T01:54:53;101527.34;;;24.13;49.16
39275;BME280;24980;48.874;2.332;2023-08-07T01:57:23;101528.36;;;24.12;49.16
39275;BME280;24980;48.874;2.332;2023-08-07T01:59:58;101527.86;;;24.11;49.16
39275;BME280;24980;48.874;2.332;2023-08-07T02:02:23;101528.11;;;24.10;49.17
39275;BME280;24980;48.874;2.332;2023-08-07T02:04:54;101532.85;;;24.10;49.19
39275;BME280;24980;48.874;2.332;2023-08-07T02:07:23;101529.80;;;24.09;49.21
39275;BME280;24980;48.874;2.332;2023-08-07T02:09:53;101529.21;;;24.10;49.22
39275;BME280;24980;48.874;2.332;2023-08-07T02:12:24;101528.20;;;24.09;49.23
39275;BME280;24980;48.874;2.332;2023-08-07T02:15:05;101523.80;;;24.09;49.22
39275;BME280;24980;48.874;2.332;2023-08-07T02:17:24;101524.64;;;24.08;49.22
39275;BME280;24980;48.874;2.332;2023-08-07T02:19:54;101527.12;;;24.08;49.22
39275;BME280;24980;48.874;2.332;2023-08-07T02:22:24;101526.28;;;24.07;49.21
39275;BME280;24980;48.874;2.332;2023-08-07T02:24:54;101530.34;;;24.07;49.21
39275;BME280;24980;48.874;2.332;2023-08-07T02:27:24;101528.73;;;24.06;49.20
39275;BME280;24980;48.874;2.332;2023-08-07T02:29:54;101529.50;;;24.05;49.20
39275;BME280;24980;48.874;2.332;2023-08-07T02:32:24;101522.22;;;24.05;49.20
39275;BME280;24980;48.874;2.332;2023-08-07T02:34:54;101519.80;;;24.04;49.21
39275;BME280;24980;48.874;2.332;2023-08-07T02:37:24;101520.65;;;24.03;49.21
39275;BME280;24980;48.874;2.332;2023-08-07T02:39:54;101521.07;;;24.02;49.20
39275;BME280;24980;48.874;2.332;2023-08-07T02:42:24;101522.59;;;24.02;49.20
39275;BME280;24980;48.874;2.332;2023-08-07T02:44:54;101519.75;;;24.01;49.20
39275;BME280;24980;48.874;2.332;2023-08-07T02:47:24;101521.11;;;24.00;49.21
39275;BME280;24980;48.874;2.332;2023-08-07T02:52:29;101525.51;;;24.00;49.21
39275;BME280;24980;48.874;2.332;2023-08-07T02:54:56;101527.29;;;23.99;49.22
39275;BME280;24980;48.874;2.332;2023-08-07T02:57:27;101526.44;;;23.99;49.23
39275;BME280;24980;48.874;2.332;2023-08-07T02:59:56;101523.77;;;23.98;49.23
39275;BME280;24980;48.874;2.332;2023-08-07T03:02:26;101522.84;;;23.97;49.24
39275;BME280;24980;48.874;2.332;2023-08-07T03:04:56;101519.03;;;23.97;49.25
39275;BME280;24980;48.874;2.332;2023-08-07T03:07:26;101525.46;;;23.97;49.28
39275;BME280;24980;48.874;2.332;2023-08-07T03:09:56;101527.75;;;23.96;49.28
39275;BME280;24980;48.874;2.332;2023-08-07T03:12:26;101525.80;;;23.96;49.29
39275;BME280;24980;48.874;2.332;2023-08-07T03:14:56;101526.00;;;23.95;49.29
39275;BME280;24980;48.874;2.332;2023-08-07T03:17:27;101524.98;;;23.95;49.30
39275;BME280;24980;48.874;2.332;2023-08-07T03:19:58;101527.86;;;23.94;49.31
39275;BME280;24980;48.874;2.332;2023-08-07T03:22:28;101526.34;;;23.94;49.31
39275;BME280;24980;48.874;2.332;2023-08-07T03:24:58;101530.66;;;23.93;49.32
39275;BME280;24980;48.874;2.332;2023-08-07T03:27:28;101533.38;;;23.93;49.31
39275;BME280;24980;48.874;2.332;2023-08-07T03:29:58;101531.59;;;23.92;49.32
39275;BME280;24980;48.874;2.332;2023-08-07T03:32:31;101531.20;;;23.92;49.32
39275;BME280;24980;48.874;2.332;2023-08-07T03:35:04;101534.92;;;23.91;49.33
39275;BME280;24980;48.874;2.332;2023-08-07T03:37:33;101538.23;;;23.90;49.33
39275;BME280;24980;48.874;2.332;2023-08-07T03:40:00;101543.39;;;23.90;49.33
39275;BME280;24980;48.874;2.332;2023-08-07T03:42:30;101547.66;;;23.89;49.34
39275;BME280;24980;48.874;2.332;2023-08-07T03:45:00;101546.56;;;23.88;49.34
39275;BME280;24980;48.874;2.332;2023-08-07T03:47:32;101546.64;;;23.88;49.34
39275;BME280;24980;48.874;2.332;2023-08-07T03:50:00;101546.39;;;23.87;49.36
39275;BME280;24980;48.874;2.332;2023-08-07T03:52:30;101544.61;;;23.87;49.36
39275;BME280;24980;48.874;2.332;2023-08-07T03:55:00;101545.45;;;23.86;49.35
39275;BME280;24980;48.874;2.332;2023-08-07T03:57:32;101547.48;;;23.86;49.37
39275;BME280;24980;48.874;2.332;2023-08-07T04:00:01;101545.16;;;23.85;49.37
39275;BME280;24980;48.874;2.332;2023-08-07T04:02:31;101543.72;;;23.84;49.38
39275;BME280;24980;48.874;2.332;2023-08-07T04:05:01;101546.51;;;23.83;49.40
39275;BME280;24980;48.874;2.332;2023-08-07T04:07:31;101544.56;;;23.83;49.41
39275;BME280;24980;48.874;2.332;2023-08-07T04:10:01;101549.47;;;23.83;49.42
39275;BME280;24980;48.874;2.332;2023-08-07T04:12:32;101546.93;;;23.82;49.42
39275;BME280;24980;48.874;2.332;2023-08-07T04:15:10;101545.70;;;23.82;49.43
39275;BME280;24980;48.874;2.332;2023-08-07T04:17:35;101545.86;;;23.80;49.43
39275;BME280;24980;48.874;2.332;2023-08-07T04:20:09;101545.86;;;23.80;49.44
39275;BME280;24980;48.874;2.332;2023-08-07T04:22:34;101543.95;;;23.79;49.45
39275;BME280;24980;48.874;2.332;2023-08-07T04:25:08;101546.83;;;23.79;49.46
39275;BME280;24980;48.874;2.332;2023-08-07T04:27:49;101550.72;;;23.79;49.47
39275;BME280;24980;48.874;2.332;2023-08-07T04:30:06;101555.20;;;23.78;49.48
39275;BME280;24980;48.874;2.332;2023-08-07T04:32:36;101558.08;;;23.78;49.47
39275;BME280;24980;48.874;2.332;2023-08-07T04:35:06;101554.70;;;23.77;49.48
39275;BME280;24980;48.874;2.332;2023-08-07T04:37:36;101547.50;;;23.77;49.48
39275;BME280;24980;48.874;2.332;2023-08-07T04:40:07;101548.34;;;23.76;49.49
39275;BME280;24980;48.874;2.332;2023-08-07T04:42:37;101555.16;;;23.75;49.48
39275;BME280;24980;48.874;2.332;2023-08-07T04:45:07;101557.95;;;23.76;49.48
39275;BME280;24980;48.874;2.332;2023-08-07T04:47:37;101564.80;;;23.75;49.48
39275;BME280;24980;48.874;2.332;2023-08-07T04:50:13;101563.53;;;23.74;49.48
39275;BME280;24980;48.874;2.332;2023-08-07T04:52:38;101563.61;;;23.73;49.48
39275;BME280;24980;48.874;2.332;2023-08-07T04:55:08;101561.41;;;23.73;49.49
39275;BME280;24980;48.874;2.332;2023-08-07T04:57:39;101558.73;;;23.72;49.49
39275;BME280;24980;48.874;2.332;2023-08-07T05:00:14;101563.31;;;23.72;49.47
39275;BME280;24980;48.874;2.332;2023-08-07T05:02:41;101563.91;;;23.71;49.50
39275;BME280;24980;48.874;2.332;2023-08-07T05:05:10;101563.22;;;23.71;49.50
39275;BME280;24980;48.874;2.332;2023-08-07T05:07:44;101560.94;;;23.70;49.51
39275;BME280;24980;48.874;2.332;2023-08-07T05:10:12;101566.02;;;23.70;49.52
39275;BME280;24980;48.874;2.332;2023-08-07T05:12:39;101567.06;;;23.69;49.53
39275;BME280;24980;48.874;2.332;2023-08-07T05:15:10;101571.30;;;23.69;49.55
39275;BME280;24980;48.874;2.332;2023-08-07T05:17:40;101572.56;;;23.68;49.56
39275;BME280;24980;48.874;2.332;2023-08-07T05:20:12;101577.64;;;23.67;49.56
39275;BME280;24980;48.874;2.332;2023-08-07T05:22:40;101581.11;;;23.67;49.56
39275;BME280;24980;48.874;2.332;2023-08-07T05:25:10;101575.39;;;23.66;49.56
39275;BME280;24980;48.874;2.332;2023-08-07T05:27:40;101577.59;;;23.66;49.57
39275;BME280;24980;48.874;2.332;2023-08-07T05:30:11;101577.16;;;23.66;49.57
39275;BME280;24980;48.874;2.332;2023-08-07T05:32:41;101579.36;;;23.66;49.57
39275;BME280;24980;48.874;2.332;2023-08-07T05:35:11;101583.94;;;23.65;49.57
39275;BME280;24980;48.874;2.332;2023-08-07T05:37:41;101583.09;;;23.65;49.58
39275;BME280;24980;48.874;2.332;2023-08-07T05:40:11;101587.91;;;23.64;49.58
39275;BME280;24980;48.874;2.332;2023-08-07T05:42:44;101587.41;;;23.64;49.60
39275;BME280;24980;48.874;2.332;2023-08-07T05:45:12;101586.84;;;23.63;49.60
39275;BME280;24980;48.874;2.332;2023-08-07T05:47:42;101588.45;;;23.63;49.60
39275;BME280;24980;48.874;2.332;2023-08-07T05:50:11;101592.42;;;23.63;49.61
39275;BME280;24980;48.874;2.332;2023-08-07T05:52:42;101596.57;;;23.62;49.62
39275;BME280;24980;48.874;2.332;2023-08-07T05:55:12;101602.83;;;23.61;49.62
39275;BME280;24980;48.874;2.332;2023-08-07T05:57:42;101602.75;;;23.61;49.63
39275;BME280;24980;48.874;2.332;2023-08-07T06:00:12;101602.66;;;23.61;49.64
39275;BME280;24980;48.874;2.332;2023-08-07T06:02:42;101602.58;;;23.60;49.64
39275;BME280;24980;48.874;2.332;2023-08-07T06:05:12;101596.59;;;23.59;49.65
39275;BME280;24980;48.874;2.332;2023-08-07T06:07:42;101590.84;;;23.59;49.66
39275;BME280;24980;48.874;2.332;2023-08-07T06:10:14;101597.53;;;23.59;49.67
39275;BME280;24980;48.874;2.332;2023-08-07T06:12:43;101596.94;;;23.59;49.68
39275;BME280;24980;48.874;2.332;2023-08-07T06:15:13;101593.12;;;23.58;49.71
39275;BME280;24980;48.874;2.332;2023-08-07T06:17:43;101596.00;;;23.57;49.72
39275;BME280;24980;48.874;2.332;2023-08-07T06:20:13;101598.03;;;23.57;49.73
39275;BME280;24980;48.874;2.332;2023-08-07T06:22:49;101596.42;;;23.57;49.74
39275;BME280;24980;48.874;2.332;2023-08-07T06:25:23;101597.78;;;23.57;49.76
39275;BME280;24980;48.874;2.332;2023-08-07T06:27:45;101601.50;;;23.57;49.77
39275;BME280;24980;48.874;2.332;2023-08-07T06:30:15;101604.75;;;23.56;49.78
39275;BME280;24980;48.874;2.332;2023-08-07T06:32:45;101607.80;;;23.56;49.79
39275;BME280;24980;48.874;2.332;2023-08-07T06:35:15;101607.20;;;23.56;49.80
39275;BME280;24980;48.874;2.332;2023-08-07T06:37:46;101617.52;;;23.55;49.83
39275;BME280;24980;48.874;2.332;2023-08-07T06:40:16;101617.36;;;23.55;49.84
39275;BME280;24980;48.874;2.332;2023-08-07T06:42:46;101618.03;;;23.55;49.85
39275;BME280;24980;48.874;2.332;2023-08-07T06:45:16;101622.34;;;23.55;49.86
39275;BME280;24980;48.874;2.332;2023-08-07T06:47:46;101620.81;;;23.54;49.86
39275;BME280;24980;48.874;2.332;2023-08-07T06:50:16;101624.97;;;23.54;49.88
39275;BME280;24980;48.874;2.332;2023-08-07T06:52:47;101627.34;;;23.53;49.89
39275;BME280;24980;48.874;2.332;2023-08-07T06:55:17;101634.81;;;23.53;49.90
39275;BME280;24980;48.874;2.332;2023-08-07T06:57:47;101639.72;;;23.53;49.90
39275;BME280;24980;48.874;2.332;2023-08-07T07:00:18;101643.36;;;23.53;49.91
39275;BME280;24980;48.874;2.332;2023-08-07T07:02:48;101646.83;;;23.53;49.93
39275;BME280;24980;48.874;2.332;2023-08-07T07:05:24;101642.00;;;23.53;49.94
39275;BME280;24980;48.874;2.332;2023-08-07T07:07:49;101647.42;;;23.52;49.95
39275;BME280;24980;48.874;2.332;2023-08-07T07:10:19;101653.77;;;23.52;49.96
39275;BME280;24980;48.874;2.332;2023-08-07T07:12:50;101656.38;;;23.52;49.98
39275;BME280;24980;48.874;2.332;2023-08-07T07:15:20;101653.77;;;23.51;50.00
39275;BME280;24980;48.874;2.332;2023-08-07T07:17:51;101649.95;;;23.52;50.02
39275;BME280;24980;48.874;2.332;2023-08-07T07:20:21;101654.69;;;23.52;50.05
39275;BME280;24980;48.874;2.332;2023-08-07T07:22:51;101655.70;;;23.52;50.07
39275;BME280;24980;48.874;2.332;2023-08-07T07:25:21;101658.75;;;23.51;50.11
39275;BME280;24980;48.874;2.332;2023-08-07T07:27:51;101658.50;;;23.51;50.16
39275;BME280;24980;48.874;2.332;2023-08-07T07:30:21;101655.97;;;23.52;50.20
39275;BME280;24980;48.874;2.332;2023-08-07T07:32:52;101656.98;;;23.52;50.23
39275;BME280;24980;48.874;2.332;2023-08-07T07:35:22;101660.70;;;23.52;50.24
39275;BME280;24980;48.874;2.332;2023-08-07T07:37:52;101655.79;;;23.50;50.25
39275;BME280;24980;48.874;2.332;2023-08-07T07:40:27;101662.64;;;23.51;50.25
39275;BME280;24980;48.874;2.332;2023-08-07T07:42:52;101661.12;;;23.51;50.25
39275;BME280;24980;48.874;2.332;2023-08-07T07:47:53;101662.22;;;23.51;50.27
39275;BME280;24980;48.874;2.332;2023-08-07T07:50:30;101664.25;;;23.51;50.28
39275;BME280;24980;48.874;2.332;2023-08-07T07:52:54;101664.76;;;23.50;50.29
39275;BME280;24980;48.874;2.332;2023-08-07T07:55:25;101664.03;;;23.50;50.31
39275;BME280;24980;48.874;2.332;2023-08-07T07:57:55;101661.14;;;23.48;50.33
39275;BME280;24980;48.874;2.332;2023-08-07T08:00:25;101661.91;;;23.48;50.35
39275;BME280;24980;48.874;2.332;2023-08-07T08:02:55;101663.27;;;23.49;50.35
39275;BME280;24980;48.874;2.332;2023-08-07T08:05:26;101671.64;;;23.50;50.35
39275;BME280;24980;48.874;2.332;2023-08-07T08:07:56;101677.28;;;23.51;50.35
39275;BME280;24980;48.874;2.332;2023-08-07T08:10:27;101683.55;;;23.53;50.34
39275;BME280;24980;48.874;2.332;2023-08-07T08:12:57;101688.94;;;23.54;50.35
39275;BME280;24980;48.874;2.332;2023-08-07T08:15:27;101687.59;;;23.54;50.38
39275;BME280;24980;48.874;2.332;2023-08-07T08:17:57;101683.44;;;23.54;50.39
39275;BME280;24980;48.874;2.332;2023-08-07T08:20:27;101682.53;;;23.53;50.41
39275;BME280;24980;48.874;2.332;2023-08-07T08:22:58;101680.34;;;23.53;50.42
39275;BME280;24980;48.874;2.332;2023-08-07T08:25:28;101684.31;;;23.53;50.43
39275;BME280;24980;48.874;2.332;2023-08-07T08:27:59;101689.11;;;23.54;50.44
39275;BME280;24980;48.874;2.332;2023-08-07T08:30:29;101688.62;;;23.53;50.44
39275;BME280;24980;48.874;2.332;2023-08-07T08:32:59;101684.73;;;23.53;50.46
39275;BME280;24980;48.874;2.332;2023-08-07T08:35:29;101679.20;;;23.54;50.45
39275;BME280;24980;48.874;2.332;2023-08-07T08:37:59;101683.53;;;23.56;50.46
39275;BME280;24980;48.874;2.332;2023-08-07T08:40:30;101681.98;;;23.57;50.47
39275;BME280;24980;48.874;2.332;2023-08-07T08:43:01;101690.42;;;23.60;50.46
39275;BME280;24980;48.874;2.332;2023-08-07T08:45:32;101686.27;;;23.61;50.46
39275;BME280;24980;48.874;2.332;2023-08-07T08:48:07;101688.81;;;23.62;50.47
39275;BME280;24980;48.874;2.332;2023-08-07T08:50:36;101692.00;;;23.64;50.48
39275;BME280;24980;48.874;2.332;2023-08-07T08:53:02;101691.39;;;23.69;50.45
39275;BME280;24980;48.874;2.332;2023-08-07T08:55:33;101682.62;;;23.75;50.43
39275;BME280;24980;48.874;2.332;2023-08-07T08:58:03;101676.82;;;23.79;50.42
39275;BME280;24980;48.874;2.332;2023-08-07T09:00:34;101671.97;;;23.85;50.40
39275;BME280;24980;48.874;2.332;2023-08-07T09:03:05;101675.59;;;23.88;50.40
39275;BME280;24980;48.874;2.332;2023-08-07T09:05:36;101678.77;;;23.91;50.40
39275;BME280;24980;48.874;2.332;2023-08-07T09:08:06;101677.90;;;23.94;50.41
39275;BME280;24980;48.874;2.332;2023-08-07T09:10:37;101677.70;;;23.96;50.41
39275;BME280;24980;48.874;2.332;2023-08-07T09:13:12;101677.88;;;23.98;50.41
39275;BME280;24980;48.874;2.332;2023-08-07T09:15:38;101681.41;;;23.99;50.41
39275;BME280;24980;48.874;2.332;2023-08-07T09:18:08;101684.03;;;24.00;50.41
39275;BME280;24980;48.874;2.332;2023-08-07T09:20:38;101688.69;;;24.00;50.43
39275;BME280;24980;48.874;2.332;2023-08-07T09:23:09;101690.80;;;24.01;50.43
39275;BME280;24980;48.874;2.332;2023-08-07T09:25:39;101687.22;;;24.04;50.42
39275;BME280;24980;48.874;2.332;2023-08-07T09:28:09;101689.98;;;24.06;50.43
39275;BME280;24980;48.874;2.332;2023-08-07T09:30:41;101686.82;;;24.09;50.44
39275;BME280;24980;48.874;2.332;2023-08-07T09:33:12;101683.18;;;24.10;50.45
39275;BME280;24980;48.874;2.332;2023-08-07T09:35:41;101684.37;;;24.10;50.49
39275;BME280;24980;48.874;2.332;2023-08-07T09:40:42;101686.34;;;24.07;50.57
39275;BME280;24980;48.874;2.332;2023-08-07T09:43:20;101697.33;;;24.09;50.57
39275;BME280;24980;48.874;2.332;2023-08-07T09:45:42;101691.91;;;24.11;50.57
39275;BME280;24980;48.874;2.332;2023-08-07T09:48:13;101690.64;;;24.14;50.57
39275;BME280;24980;48.874;2.332;2023-08-07T09:50:45;101694.39;;;24.18;50.58
39275;BME280;24980;48.874;2.332;2023-08-07T09:53:13;101689.14;;;24.20;50.58
39275;BME280;24980;48.874;2.332;2023-08-07T09:55:44;101692.67;;;24.21;50.57
39275;BME280;24980;48.874;2.332;2023-08-07T09:58:15;101688.69;;;24.23;50.60
39275;BME280;24980;48.874;2.332;2023-08-07T10:00:46;101685.02;;;24.26;50.60
39275;BME280;24980;48.874;2.332;2023-08-07T10:03:15;101684.98;;;24.29;50.58
39275;BME280;24980;48.874;2.332;2023-08-07T10:05:45;101682.23;;;24.32;50.59
39275;BME280;24980;48.874;2.332;2023-08-07T10:08:16;101690.25;;;24.34;50.60
39275;BME280;24980;48.874;2.332;2023-08-07T10:10:48;101683.77;;;24.34;50.62
39275;BME280;24980;48.874;2.332;2023-08-07T10:13:22;101687.06;;;24.32;50.63
39275;BME280;24980;48.874;2.332;2023-08-07T10:15:48;101678.12;;;24.30;50.64
39275;BME280;24980;48.874;2.332;2023-08-07T10:18:19;101664.91;;;24.28;50.67
39275;BME280;24980;48.874;2.332;2023-08-07T10:20:50;101664.73;;;24.28;50.69
39275;BME280;24980;48.874;2.332;2023-08-07T10:23:21;101668.83;;;24.27;50.72
39275;BME280;24980;48.874;2.332;2023-08-07T10:25:50;101670.95;;;24.27;50.73
39275;BME280;24980;48.874;2.332;2023-08-07T10:28:23;101661.17;;;24.27;50.73
39275;BME280;24980;48.874;2.332;2023-08-07T10:30:51;101663.89;;;24.28;50.72
39275;BME280;24980;48.874;2.332;2023-08-07T10:33:21;101661.09;;;24.29;50.69
39275;BME280;24980;48.874;2.332;2023-08-07T10:35:52;101661.42;;;24.30;50.67
39275;BME280;24980;48.874;2.332;2023-08-07T10:38:23;101662.08;;;24.31;50.65
39275;BME280;24980;48.874;2.332;2023-08-07T10:40:59;101670.72;;;24.33;50.62
39275;BME280;24980;48.874;2.332;2023-08-07T10:43:23;101669.53;;;24.34;50.61
39275;BME280;24980;48.874;2.332;2023-08-07T10:45:53;101663.85;;;24.33;50.60
39275;BME280;24980;48.874;2.332;2023-08-07T10:48:24;101665.94;;;24.36;50.59
39275;BME280;24980;48.874;2.332;2023-08-07T10:51:05;101658.53;;;24.38;50.55
39275;BME280;24980;48.874;2.332;2023-08-07T10:53:31;101653.24;;;24.42;50.52
39275;BME280;24980;48.874;2.332;2023-08-07T10:55:54;101655.30;;;24.47;50.49
39275;BME280;24980;48.874;2.332;2023-08-07T10:58:26;101652.46;;;24.51;50.49
39275;BME280;24980;48.874;2.332;2023-08-07T11:01:27;101653.74;;;24.57;50.50
39275;BME280;24980;48.874;2.332;2023-08-07T11:03:27;101659.18;;;24.63;50.50
39275;BME280;24980;48.874;2.332;2023-08-07T11:05:59;101650.92;;;24.67;50.50
39275;BME280;24980;48.874;2.332;2023-08-07T11:08:29;101645.49;;;24.68;50.49
39275;BME280;24980;48.874;2.332;2023-08-07T11:11:04;101644.52;;;24.71;50.47
39275;BME280;24980;48.874;2.332;2023-08-07T11:13:30;101645.16;;;24.73;50.44
39275;BME280;24980;48.874;2.332;2023-08-07T11:16:03;101646.09;;;24.74;50.40
39275;BME280;24980;48.874;2.332;2023-08-07T11:18:31;101643.38;;;24.74;50.37
39275;BME280;24980;48.874;2.332;2023-08-07T11:21:01;101633.80;;;24.75;50.36
39275;BME280;24980;48.874;2.332;2023-08-07T11:23:31;101636.05;;;24.77;50.33
39275;BME280;24980;48.874;2.332;2023-08-07T11:26:07;101629.94;;;24.78;50.30
39275;BME280;24980;48.874;2.332;2023-08-07T11:28:32;101633.38;;;24.82;50.28
39275;BME280;24980;48.874;2.332;2023-08-07T11:31:06;101627.77;;;24.85;50.25
39275;BME280;24980;48.874;2.332;2023-08-07T11:36:02;101636.34;;;24.89;50.20
39275;BME280;24980;48.874;2.332;2023-08-07T11:38:34;101631.50;;;24.90;50.20
39275;BME280;24980;48.874;2.332;2023-08-07T11:41:05;101627.31;;;24.92;50.16
39275;BME280;24980;48.874;2.332;2023-08-07T11:43:35;101622.05;;;24.93;50.12
39275;BME280;24980;48.874;2.332;2023-08-07T11:46:06;101624.25;;;24.93;50.11
39275;BME280;24980;48.874;2.332;2023-08-07T11:48:36;101614.42;;;24.92;50.11
39275;BME280;24980;48.874;2.332;2023-08-07T11:51:05;101616.16;;;24.90;50.13
39275;BME280;24980;48.874;2.332;2023-08-07T11:53:37;101612.81;;;24.87;50.11
39275;BME280;24980;48.874;2.332;2023-08-07T11:56:07;101615.48;;;24.83;50.07
39275;BME280;24980;48.874;2.332;2023-08-07T11:58:36;101611.41;;;24.82;50.02
39275;BME280;24980;48.874;2.332;2023-08-07T12:01:06;101605.31;;;24.80;49.99
39275;BME280;24980;48.874;2.332;2023-08-07T12:03:37;101603.02;;;24.80;49.95
39275;BME280;24980;48.874;2.332;2023-08-07T12:06:07;101594.55;;;24.81;49.92
39275;BME280;24980;48.874;2.332;2023-08-07T12:08:43;101590.64;;;24.81;49.91
39275;BME280;24980;48.874;2.332;2023-08-07T12:11:14;101587.94;;;24.80;49.89
39275;BME280;24980;48.874;2.332;2023-08-07T12:13:43;101590.39;;;24.81;49.88
39275;BME280;24980;48.874;2.332;2023-08-07T12:16:08;101590.98;;;24.81;49.87
39275;BME280;24980;48.874;2.332;2023-08-07T12:18:38;101589.70;;;24.81;49.87
39275;BME280;24980;48.874;2.332;2023-08-07T12:21:08;101579.11;;;24.82;49.85
39275;BME280;24980;48.874;2.332;2023-08-07T12:23:39;101585.47;;;24.83;49.84
39275;BME280;24980;48.874;2.332;2023-08-07T12:26:09;101588.00;;;24.84;49.83
39275;BME280;24980;48.874;2.332;2023-08-07T12:28:39;101578.22;;;24.85;49.81
39275;BME280;24980;48.874;2.332;2023-08-07T12:31:10;101571.94;;;24.86;49.80
39275;BME280;24980;48.874;2.332;2023-08-07T12:33:40;101571.42;;;24.87;49.79
39275;BME280;24980;48.874;2.332;2023-08-07T12:36:10;101568.80;;;24.87;49.79
39275;BME280;24980;48.874;2.332;2023-08-07T12:38:40;101566.21;;;24.89;49.78
39275;BME280;24980;48.874;2.332;2023-08-07T12:41:10;101567.14;;;24.90;49.77
39275;BME280;24980;48.874;2.332;2023-08-07T12:43:41;101573.24;;;24.91;49.77
39275;BME280;24980;48.874;2.332;2023-08-07T12:46:17;101569.25;;;24.92;49.79
39275;BME280;24980;48.874;2.332;2023-08-07T12:48:42;101570.23;;;24.93;49.82
39275;BME280;24980;48.874;2.332;2023-08-07T12:51:12;101565.73;;;24.93;49.85
39275;BME280;24980;48.874;2.332;2023-08-07T12:53:42;101567.77;;;24.94;49.87
39275;BME280;24980;48.874;2.332;2023-08-07T12:56:12;101574.38;;;24.94;49.87
39275;BME280;24980;48.874;2.332;2023-08-07T12:58:42;101566.92;;;24.94;49.86
39275;BME280;24980;48.874;2.332;2023-08-07T13:01:12;101570.31;;;24.94;49.82
39275;BME280;24980;48.874;2.332;2023-08-07T13:03:42;101570.19;;;24.96;49.80
39275;BME280;24980;48.874;2.332;2023-08-07T13:06:13;101568.23;;;24.97;49.76
39275;BME280;24980;48.874;2.332;2023-08-07T13:08:43;101569.33;;;24.98;49.74
39275;BME280;24980;48.874;2.332;2023-08-07T13:11:13;101564.67;;;24.98;49.71
39275;BME280;24980;48.874;2.332;2023-08-07T13:13:45;101563.27;;;24.99;49.68
39275;BME280;24980;48.874;2.332;2023-08-07T13:16:14;101558.61;;;25.00;49.65
39275;BME280;24980;48.874;2.332;2023-08-07T13:18:49;101562.84;;;25.00;49.63
39275;BME280;24980;48.874;2.332;2023-08-07T13:21:14;101561.02;;;25.02;49.59